sensor_id;sensor_type;location;lat;lon;timestamp;pressure;altitude;pressure_sealevel;temperature;humidity
64025;BME280;50266;57.446;26.936;2023-05-01T00:00:36;99422.7;;;1.29;100.0
64025;BME280;50266;57.446;26.936;2023-05-01T00:01:36;99417.23;;;1.33;100.0
64025;BME280;50266;57.446;26.936;2023-05-01T00:02:36;99418.44;;;1.35;100.0
64025;BME280;50266;57.446;26.936;2023-05-01T00:03:36;99411.74;;;1.36;100.0
64025;BME280;50266;57.446;26.936;2023-05-01T00:04:36;99416.42;;;1.37;100.0
64025;BME280;50266;57.446;26.936;2023-05-01T00:05:36;99419.12;;;1.38;100.0
64025;BME280;50266;57.446;26.936;2023-05-01T00:06:36;99417.7;;;1.4;100.0
64025;BME280;50266;57.446;26.936;2023-05-01T00:07:36;99413.2;;;1.38;100.0
64025;BME280;50266;57.446;26.936;2023-05-01T00:08:36;99414.16;;;1.46;100.0
64025;BME280;50266;57.446;26.936;2023-05-01T00:09:36;99411.39;;;1.45;100.0
64025;BME280;50266;57.446;26.936;2023-05-01T00:10:36;99409.01;;;1.4;100.0
64025;BME280;50266;57.446;26.936;2023-05-01T00:11:36;99413.5;;;1.45;100.0
64025;BME280;50266;57.446;26.936;2023-05-01T00:12:36;99414.87;;;1.45;100.0
64025;BME280;50266;57.446;26.936;2023-05-01T00:13:36;99415.69;;;1.51;100.0
64025;BME280;50266;57.446;26.936;2023-05-01T00:14:36;99415.56;;;1.53;100.0
64025;BME280;50266;57.446;26.936;2023-05-01T00:15:36;99416.05;;;1.5;100.0
64025;BME280;50266;57.446;26.936;2023-05-01T00:16:37;99417.39;;;1.56;100.0
64025;BME280;50266;57.446;26.936;2023-05-01T00:17:37;99419.49;;;1.53;100.0
64025;BME280;50266;57.446;26.936;2023-05-01T00:18:37;99418.71;;;1.54;100.0
64025;BME280;50266;57.446;26.936;2023-05-01T00:19:37;99423.02;;;1.5;100.0
64025;BME280;50266;57.446;26.936;2023-05-01T00:20:37;99425.55;;;1.46;100.0
64025;BME280;50266;57.446;26.936;2023-05-01T00:21:37;99425.46;;;1.49;100.0
64025;BME280;50266;57.446;26.936;2023-05-01T00:22:37;99429.26;;;1.52;100.0
64025;BME280;50266;57.446;26.936;2023-05-01T00:23:37;99430.97;;;1.53;100.0
64025;BME280;50266;57.446;26.936;2023-05-01T00:24:37;99428.3;;;1.51;100.0
64025;BME280;50266;57.446;26.936;2023-05-01T00:25:37;99425.81;;;1.59;100.0
64025;BME280;50266;57.446;26.936;2023-05-01T00:26:37;99429.1;;;1.55;100.0
64025;BME280;50266;57.446;26.936;2023-05-01T00:27:37;99430.03;;;1.51;100.0
64025;BME280;50266;57.446;26.936;2023-05-01T00:28:37;99422.28;;;1.51;100.0
64025;BME280;50266;57.446;26.936;2023-05-01T00:29:37;99430.01;;;1.59;100.0
64025;BME280;50266;57.446;26.936;2023-05-01T00:30:37;99427.09;;;1.57;100.0
64025;BME280;50266;57.446;26.936;2023-05-01T00:31:37;99424.88;;;1.58;100.0
64025;BME280;50266;57.446;26.936;2023-05-01T00:32:37;99430.09;;;1.6;100.0
64025;BME280;50266;57.446;26.936;2023-05-01T00:33:37;99427.59;;;1.6;100.0
64025;BME280;50266;57.446;26.936;2023-05-01T00:34:37;99428.77;;;1.64;100.0
64025;BME280;50266;57.446;26.936;2023-05-01T00:35:37;99427.23;;;1.59;100.0
64025;BME280;50266;57.446;26.936;2023-05-01T00:36:38;99429.17;;;1.6;100.0
64025;BME280;50266;57.446;26.936;2023-05-01T00:37:37;99423.59;;;1.62;100.0
64025;BME280;50266;57.446;26.936;2023-05-01T00:38:37;99432.7;;;1.64;100.0
64025;BME280;50266;57.446;26.936;2023-05-01T00:39:37;99429.06;;;1.57;100.0
64025;BME280;50266;57.446;26.936;2023-05-01T00:40:40;99431.22;;;1.59;100.0
64025;BME280;50266;57.446;26.936;2023-05-01T00:41:37;99432.2;;;1.61;100.0
64025;BME280;50266;57.446;26.936;2023-05-01T00:42:37;99428.69;;;1.56;100.0
64025;BME280;50266;57.446;26.936;2023-05-01T00:43:37;99430.53;;;1.62;100.0
64025;BME280;50266;57.446;26.936;2023-05-01T00:44:37;99434.98;;;1.64;100.0
64025;BME280;50266;57.446;26.936;2023-05-01T00:45:38;99431.25;;;1.56;100.0
64025;BME280;50266;57.446;26.936;2023-05-01T00:46:37;99430.55;;;1.52;100.0
64025;BME280;50266;57.446;26.936;2023-05-01T00:47:37;99426.31;;;1.52;100.0
64025;BME280;50266;57.446;26.936;2023-05-01T00:48:37;99427.44;;;1.63;100.0
64025;BME280;50266;57.446;26.936;2023-05-01T00:49:37;99427.68;;;1.64;100.0
64025;BME280;50266;57.446;26.936;2023-05-01T00:50:37;99432.47;;;1.59;100.0
64025;BME280;50266;57.446;26.936;2023-05-01T00:51:37;99432.15;;;1.63;100.0
64025;BME280;50266;57.446;26.936;2023-05-01T00:52:37;99434.16;;;1.59;100.0
64025;BME280;50266;57.446;26.936;2023-05-01T00:53:39;99429.0;;;1.55;100.0
64025;BME280;50266;57.446;26.936;2023-05-01T00:54:37;99429.87;;;1.59;100.0
64025;BME280;50266;57.446;26.936;2023-05-01T00:55:37;99426.24;;;1.59;100.0
64025;BME280;50266;57.446;26.936;2023-05-01T00:56:37;99429.92;;;1.6;100.0
64025;BME280;50266;57.446;26.936;2023-05-01T00:57:37;99429.84;;;1.59;100.0
64025;BME280;50266;57.446;26.936;2023-05-01T00:58:37;99433.08;;;1.61;100.0
64025;BME280;50266;57.446;26.936;2023-05-01T00:59:37;99427.09;;;1.59;100.0
64025;BME280;50266;57.446;26.936;2023-05-01T01:00:37;99427.84;;;1.46;100.0
64025;BME280;50266;57.446;26.936;2023-05-01T01:01:38;99425.49;;;1.42;100.0
64025;BME280;50266;57.446;26.936;2023-05-01T01:02:37;99424.79;;;1.48;100.0
64025;BME280;50266;57.446;26.936;2023-05-01T01:03:37;99425.17;;;1.42;100.0
64025;BME280;50266;57.446;26.936;2023-05-01T01:04:40;99425.15;;;1.41;100.0
64025;BME280;50266;57.446;26.936;2023-05-01T01:05:39;99426.15;;;1.34;100.0
64025;BME280;50266;57.446;26.936;2023-05-01T01:07:48;99430.27;;;1.32;100.0
64025;BME280;50266;57.446;26.936;2023-05-01T01:08:44;99427.7;;;1.31;100.0
64025;BME280;50266;57.446;26.936;2023-05-01T01:10:01;99427.86;;;1.3;100.0
64025;BME280;50266;57.446;26.936;2023-05-01T01:12:08;99427.62;;;1.25;100.0
64025;BME280;50266;57.446;26.936;2023-05-01T01:13:57;99425.31;;;1.19;100.0
64025;BME280;50266;57.446;26.936;2023-05-01T01:15:14;99426.86;;;1.2;100.0
64025;BME280;50266;57.446;26.936;2023-05-01T01:17:14;99422.0;;;1.09;100.0
64025;BME280;50266;57.446;26.936;2023-05-01T01:18:08;99425.11;;;1.07;100.0
64025;BME280;50266;57.446;26.936;2023-05-01T01:20:18;99426.99;;;1.04;100.0
64025;BME280;50266;57.446;26.936;2023-05-01T01:21:11;99427.75;;;1.0;100.0
64025;BME280;50266;57.446;26.936;2023-05-01T01:22:12;99422.8;;;0.93;100.0
64025;BME280;50266;57.446;26.936;2023-05-01T01:27:43;99428.0;;;0.87;100.0
64025;BME280;50266;57.446;26.936;2023-05-01T01:28:33;99429.98;;;0.86;100.0
64025;BME280;50266;57.446;26.936;2023-05-01T01:31:56;99422.19;;;0.81;100.0
64025;BME280;50266;57.446;26.936;2023-05-01T01:33:50;99423.58;;;0.8;100.0
64025;BME280;50266;57.446;26.936;2023-05-01T01:34:46;99424.02;;;0.76;100.0
64025;BME280;50266;57.446;26.936;2023-05-01T01:35:52;99429.94;;;0.79;100.0
64025;BME280;50266;57.446;26.936;2023-05-01T01:37:56;99426.99;;;0.81;100.0
64025;BME280;50266;57.446;26.936;2023-05-01T01:39:00;99424.33;;;0.84;100.0
64025;BME280;50266;57.446;26.936;2023-05-01T01:40:00;99429.34;;;0.71;100.0
64025;BME280;50266;57.446;26.936;2023-05-01T01:41:00;99428.42;;;0.66;100.0
64025;BME280;50266;57.446;26.936;2023-05-01T01:41:58;99427.16;;;0.69;100.0
64025;BME280;50266;57.446;26.936;2023-05-01T01:43:01;99427.8;;;0.69;100.0
64025;BME280;50266;57.446;26.936;2023-05-01T01:44:03;99429.69;;;0.7;100.0
64025;BME280;50266;57.446;26.936;2023-05-01T01:45:00;99427.95;;;0.69;100.0
64025;BME280;50266;57.446;26.936;2023-05-01T01:46:01;99430.22;;;0.64;100.0
64025;BME280;50266;57.446;26.936;2023-05-01T01:47:01;99425.42;;;0.77;100.0
64025;BME280;50266;57.446;26.936;2023-05-01T01:48:00;99430.04;;;0.65;100.0
64025;BME280;50266;57.446;26.936;2023-05-01T01:49:00;99429.36;;;0.59;100.0
64025;BME280;50266;57.446;26.936;2023-05-01T01:50:02;99431.86;;;0.64;100.0
64025;BME280;50266;57.446;26.936;2023-05-01T01:51:00;99428.45;;;0.65;100.0
64025;BME280;50266;57.446;26.936;2023-05-01T01:52:01;99434.58;;;0.68;100.0
64025;BME280;50266;57.446;26.936;2023-05-01T01:53:01;99432.14;;;0.66;100.0
64025;BME280;50266;57.446;26.936;2023-05-01T01:54:01;99429.65;;;0.63;100.0
64025;BME280;50266;57.446;26.936;2023-05-01T01:55:04;99439.47;;;0.6;100.0
64025;BME280;50266;57.446;26.936;2023-05-01T01:56:02;99436.48;;;0.57;100.0
64025;BME280;50266;57.446;26.936;2023-05-01T01:57:02;99435.62;;;0.55;100.0
64025;BME280;50266;57.446;26.936;2023-05-01T01:58:02;99434.6;;;0.52;100.0
64025;BME280;50266;57.446;26.936;2023-05-01T01:59:01;99430.72;;;0.53;100.0
64025;BME280;50266;57.446;26.936;2023-05-01T02:00:02;99435.83;;;0.55;100.0
64025;BME280;50266;57.446;26.936;2023-05-01T02:01:01;99433.16;;;0.58;100.0
64025;BME280;50266;57.446;26.936;2023-05-01T02:02:02;99434.95;;;0.54;100.0
64025;BME280;50266;57.446;26.936;2023-05-01T02:03:02;99438.64;;;0.48;100.0
64025;BME280;50266;57.446;26.936;2023-05-01T02:04:02;99434.78;;;0.49;100.0
64025;BME280;50266;57.446;26.936;2023-05-01T02:05:02;99435.98;;;0.49;100.0
64025;BME280;50266;57.446;26.936;2023-05-01T02:06:02;99435.72;;;0.49;100.0
64025;BME280;50266;57.446;26.936;2023-05-01T02:07:02;99432.31;;;0.48;100.0
64025;BME280;50266;57.446;26.936;2023-05-01T02:08:02;99433.02;;;0.45;100.0
64025;BME280;50266;57.446;26.936;2023-05-01T02:09:02;99435.14;;;0.48;100.0
64025;BME280;50266;57.446;26.936;2023-05-01T02:10:02;99429.89;;;0.45;100.0
64025;BME280;50266;57.446;26.936;2023-05-01T02:11:02;99430.58;;;0.41;100.0
64025;BME280;50266;57.446;26.936;2023-05-01T02:12:03;99431.69;;;0.45;100.0
64025;BME280;50266;57.446;26.936;2023-05-01T02:13:02;99430.96;;;0.52;100.0
64025;BME280;50266;57.446;26.936;2023-05-01T02:14:02;99431.51;;;0.45;100.0
64025;BME280;50266;57.446;26.936;2023-05-01T02:15:02;99430.73;;;0.42;100.0
64025;BME280;50266;57.446;26.936;2023-05-01T02:16:02;99431.3;;;0.45;100.0
64025;BME280;50266;57.446;26.936;2023-05-01T02:17:02;99433.02;;;0.41;100.0
64025;BME280;50266;57.446;26.936;2023-05-01T02:18:02;99430.9;;;0.41;100.0
64025;BME280;50266;57.446;26.936;2023-05-01T02:19:03;99434.97;;;0.39;100.0
64025;BME280;50266;57.446;26.936;2023-05-01T02:20:02;99435.42;;;0.34;100.0
64025;BME280;50266;57.446;26.936;2023-05-01T02:21:02;99439.32;;;0.31;100.0
64025;BME280;50266;57.446;26.936;2023-05-01T02:22:02;99440.98;;;0.25;100.0
64025;BME280;50266;57.446;26.936;2023-05-01T02:23:02;99438.57;;;0.34;100.0
64025;BME280;50266;57.446;26.936;2023-05-01T02:24:02;99442.26;;;0.29;100.0
64025;BME280;50266;57.446;26.936;2023-05-01T02:25:02;99441.9;;;0.18;100.0
64025;BME280;50266;57.446;26.936;2023-05-01T02:26:02;99444.48;;;0.15;100.0
64025;BME280;50266;57.446;26.936;2023-05-01T02:27:12;99442.38;;;0.14;100.0
64025;BME280;50266;57.446;26.936;2023-05-01T02:28:10;99443.11;;;0.11;100.0
64025;BME280;50266;57.446;26.936;2023-05-01T02:29:07;99446.22;;;0.13;100.0
64025;BME280;50266;57.446;26.936;2023-05-01T02:30:07;99449.08;;;0.14;100.0
64025;BME280;50266;57.446;26.936;2023-05-01T02:31:08;99448.19;;;0.12;100.0
64025;BME280;50266;57.446;26.936;2023-05-01T02:32:07;99444.47;;;0.11;100.0
64025;BME280;50266;57.446;26.936;2023-05-01T02:33:07;99442.65;;;0.07;100.0
64025;BME280;50266;57.446;26.936;2023-05-01T02:34:07;99446.61;;;0.1;100.0
64025;BME280;50266;57.446;26.936;2023-05-01T02:35:07;99447.61;;;0.09;100.0
64025;BME280;50266;57.446;26.936;2023-05-01T02:36:07;99450.64;;;0.12;100.0
64025;BME280;50266;57.446;26.936;2023-05-01T02:37:07;99446.17;;;0.14;100.0
64025;BME280;50266;57.446;26.936;2023-05-01T02:38:07;99448.97;;;0.05;100.0
64025;BME280;50266;57.446;26.936;2023-05-01T02:39:07;99447.83;;;0.12;100.0
64025;BME280;50266;57.446;26.936;2023-05-01T02:40:07;99448.55;;;0.09;100.0
64025;BME280;50266;57.446;26.936;2023-05-01T02:41:07;99446.3;;;0.02;100.0
64025;BME280;50266;57.446;26.936;2023-05-01T02:42:07;99442.14;;;0.08;100.0
64025;BME280;50266;57.446;26.936;2023-05-01T02:43:08;99451.16;;;0.09;100.0
64025;BME280;50266;57.446;26.936;2023-05-01T02:44:08;99446.27;;;0.09;100.0
64025;BME280;50266;57.446;26.936;2023-05-01T02:45:08;99444.86;;;0.12;100.0
64025;BME280;50266;57.446;26.936;2023-05-01T02:46:07;99449.38;;;0.11;100.0
64025;BME280;50266;57.446;26.936;2023-05-01T02:47:07;99448.19;;;0.12;100.0
64025;BME280;50266;57.446;26.936;2023-05-01T02:48:08;99447.84;;;0.13;100.0
64025;BME280;50266;57.446;26.936;2023-05-01T02:49:07;99448.83;;;0.13;100.0
64025;BME280;50266;57.446;26.936;2023-05-01T02:50:07;99454.27;;;0.11;100.0
64025;BME280;50266;57.446;26.936;2023-05-01T02:51:07;99452.95;;;0.13;100.0
64025;BME280;50266;57.446;26.936;2023-05-01T02:52:07;99450.25;;;0.1;100.0
64025;BME280;50266;57.446;26.936;2023-05-01T02:53:07;99447.64;;;0.12;100.0
64025;BME280;50266;57.446;26.936;2023-05-01T02:54:07;99447.52;;;0.11;100.0
64025;BME280;50266;57.446;26.936;2023-05-01T02:55:08;99442.84;;;0.13;100.0
64025;BME280;50266;57.446;26.936;2023-05-01T02:56:07;99442.92;;;0.19;100.0
64025;BME280;50266;57.446;26.936;2023-05-01T02:57:08;99444.71;;;0.22;100.0
64025;BME280;50266;57.446;26.936;2023-05-01T02:58:07;99447.23;;;0.11;100.0
64025;BME280;50266;57.446;26.936;2023-05-01T02:59:07;99443.14;;;0.09;100.0
64025;BME280;50266;57.446;26.936;2023-05-01T03:00:08;99441.83;;;0.16;100.0
64025;BME280;50266;57.446;26.936;2023-05-01T03:01:07;99446.02;;;0.22;100.0
64025;BME280;50266;57.446;26.936;2023-05-01T03:02:07;99443.64;;;0.18;100.0
64025;BME280;50266;57.446;26.936;2023-05-01T03:03:07;99444.41;;;0.21;100.0
64025;BME280;50266;57.446;26.936;2023-05-01T03:04:07;99437.53;;;0.24;100.0
64025;BME280;50266;57.446;26.936;2023-05-01T03:05:08;99437.47;;;0.17;100.0
64025;BME280;50266;57.446;26.936;2023-05-01T03:06:08;99439.39;;;0.18;100.0
64025;BME280;50266;57.446;26.936;2023-05-01T03:07:08;99437.17;;;0.15;100.0
64025;BME280;50266;57.446;26.936;2023-05-01T03:08:08;99441.07;;;0.14;100.0
64025;BME280;50266;57.446;26.936;2023-05-01T03:09:08;99441.97;;;0.15;100.0
64025;BME280;50266;57.446;26.936;2023-05-01T03:10:08;99438.67;;;0.16;100.0
64025;BME280;50266;57.446;26.936;2023-05-01T03:11:08;99439.26;;;0.15;100.0
64025;BME280;50266;57.446;26.936;2023-05-01T03:12:08;99437.95;;;0.17;100.0
64025;BME280;50266;57.446;26.936;2023-05-01T03:13:08;99441.12;;;0.16;100.0
64025;BME280;50266;57.446;26.936;2023-05-01T03:14:08;99443.06;;;0.17;100.0
64025;BME280;50266;57.446;26.936;2023-05-01T03:15:08;99437.42;;;0.16;100.0
64025;BME280;50266;57.446;26.936;2023-05-01T03:16:08;99437.77;;;0.21;100.0
64025;BME280;50266;57.446;26.936;2023-05-01T03:17:08;99435.14;;;0.2;100.0
64025;BME280;50266;57.446;26.936;2023-05-01T03:18:08;99438.74;;;0.28;100.0
64025;BME280;50266;57.446;26.936;2023-05-01T03:19:08;99439.77;;;0.28;100.0
64025;BME280;50266;57.446;26.936;2023-05-01T03:20:08;99438.98;;;0.29;100.0
64025;BME280;50266;57.446;26.936;2023-05-01T03:21:08;99441.29;;;0.35;100.0
64025;BME280;50266;57.446;26.936;2023-05-01T03:22:08;99442.59;;;0.22;100.0
64025;BME280;50266;57.446;26.936;2023-05-01T03:23:08;99441.12;;;0.26;100.0
64025;BME280;50266;57.446;26.936;2023-05-01T03:24:08;99443.41;;;0.22;100.0
64025;BME280;50266;57.446;26.936;2023-05-01T03:25:08;99443.72;;;0.19;100.0
64025;BME280;50266;57.446;26.936;2023-05-01T03:26:08;99444.22;;;0.14;100.0
64025;BME280;50266;57.446;26.936;2023-05-01T03:27:08;99441.98;;;0.35;100.0
64025;BME280;50266;57.446;26.936;2023-05-01T03:28:08;99443.81;;;0.3;100.0
64025;BME280;50266;57.446;26.936;2023-05-01T03:29:08;99446.06;;;0.22;100.0
64025;BME280;50266;57.446;26.936;2023-05-01T03:30:08;99439.55;;;0.24;100.0
64025;BME280;50266;57.446;26.936;2023-05-01T03:31:08;99442.59;;;0.19;100.0
64025;BME280;50266;57.446;26.936;2023-05-01T03:32:08;99442.23;;;0.06;100.0
64025;BME280;50266;57.446;26.936;2023-05-01T03:33:08;99446.81;;;0.08;100.0
64025;BME280;50266;57.446;26.936;2023-05-01T03:34:08;99443.45;;;0.05;100.0
64025;BME280;50266;57.446;26.936;2023-05-01T03:35:08;99441.59;;;0.06;100.0
64025;BME280;50266;57.446;26.936;2023-05-01T03:36:08;99438.14;;;0.09;100.0
64025;BME280;50266;57.446;26.936;2023-05-01T03:37:08;99437.89;;;0.17;100.0
64025;BME280;50266;57.446;26.936;2023-05-01T03:38:08;99437.03;;;0.14;100.0
64025;BME280;50266;57.446;26.936;2023-05-01T03:39:08;99440.59;;;0.16;100.0
64025;BME280;50266;57.446;26.936;2023-05-01T03:40:08;99440.99;;;0.06;100.0
64025;BME280;50266;57.446;26.936;2023-05-01T03:41:08;99442.96;;;0.1;100.0
64025;BME280;50266;57.446;26.936;2023-05-01T03:42:08;99439.95;;;0.17;100.0
64025;BME280;50266;57.446;26.936;2023-05-01T03:43:08;99443.02;;;0.03;100.0
64025;BME280;50266;57.446;26.936;2023-05-01T03:44:08;99443.59;;;-0.02;100.0
64025;BME280;50266;57.446;26.936;2023-05-01T03:45:09;99448.66;;;-0.02;100.0
64025;BME280;50266;57.446;26.936;2023-05-01T03:46:08;99444.53;;;0.0;100.0
64025;BME280;50266;57.446;26.936;2023-05-01T03:47:08;99445.61;;;0.02;100.0
64025;BME280;50266;57.446;26.936;2023-05-01T03:48:08;99448.18;;;0.08;100.0
64025;BME280;50266;57.446;26.936;2023-05-01T03:49:08;99449.84;;;0.13;100.0
64025;BME280;50266;57.446;26.936;2023-05-01T03:50:09;99450.23;;;0.06;100.0
64025;BME280;50266;57.446;26.936;2023-05-01T03:51:08;99447.19;;;0.09;100.0
64025;BME280;50266;57.446;26.936;2023-05-01T03:52:09;99446.41;;;0.09;100.0
64025;BME280;50266;57.446;26.936;2023-05-01T03:53:08;99450.36;;;0.13;100.0
64025;BME280;50266;57.446;26.936;2023-05-01T03:54:08;99447.59;;;0.1;100.0
64025;BME280;50266;57.446;26.936;2023-05-01T03:55:09;99448.68;;;0.0;100.0
64025;BME280;50266;57.446;26.936;2023-05-01T03:56:08;99450.16;;;0.12;100.0
64025;BME280;50266;57.446;26.936;2023-05-01T03:57:08;99448.86;;;0.09;100.0
64025;BME280;50266;57.446;26.936;2023-05-01T03:58:09;99445.31;;;0.12;100.0
64025;BME280;50266;57.446;26.936;2023-05-01T03:59:08;99445.29;;;0.11;100.0
64025;BME280;50266;57.446;26.936;2023-05-01T04:00:09;99449.52;;;0.18;100.0
64025;BME280;50266;57.446;26.936;2023-05-01T04:01:08;99445.73;;;0.08;100.0
64025;BME280;50266;57.446;26.936;2023-05-01T04:02:08;99450.08;;;0.08;100.0
64025;BME280;50266;57.446;26.936;2023-05-01T04:03:08;99452.08;;;0.14;100.0
64025;BME280;50266;57.446;26.936;2023-05-01T04:04:08;99450.38;;;0.12;100.0
64025;BME280;50266;57.446;26.936;2023-05-01T04:05:08;99452.54;;;0.25;100.0
64025;BME280;50266;57.446;26.936;2023-05-01T04:06:09;99448.0;;;0.21;100.0
64025;BME280;50266;57.446;26.936;2023-05-01T04:07:09;99448.72;;;0.36;100.0
64025;BME280;50266;57.446;26.936;2023-05-01T04:08:09;99446.16;;;0.31;100.0
64025;BME280;50266;57.446;26.936;2023-05-01T04:09:09;99447.36;;;0.49;100.0
64025;BME280;50266;57.446;26.936;2023-05-01T04:10:09;99455.19;;;0.39;100.0
64025;BME280;50266;57.446;26.936;2023-05-01T04:11:09;99443.76;;;0.23;100.0
64025;BME280;50266;57.446;26.936;2023-05-01T04:12:09;99446.3;;;0.35;100.0
64025;BME280;50266;57.446;26.936;2023-05-01T04:13:09;99446.34;;;0.47;100.0
64025;BME280;50266;57.446;26.936;2023-05-01T04:14:09;99451.87;;;0.44;100.0
64025;BME280;50266;57.446;26.936;2023-05-01T04:15:09;99445.03;;;0.27;100.0
64025;BME280;50266;57.446;26.936;2023-05-01T04:16:09;99450.84;;;0.25;100.0
64025;BME280;50266;57.446;26.936;2023-05-01T04:17:09;99450.23;;;0.36;100.0
64025;BME280;50266;57.446;26.936;2023-05-01T04:18:09;99449.0;;;0.49;100.0
64025;BME280;50266;57.446;26.936;2023-05-01T04:19:09;99449.97;;;0.45;100.0
64025;BME280;50266;57.446;26.936;2023-05-01T04:20:09;99447.09;;;0.49;100.0
64025;BME280;50266;57.446;26.936;2023-05-01T04:21:09;99453.47;;;0.45;100.0
64025;BME280;50266;57.446;26.936;2023-05-01T04:22:09;99451.5;;;0.62;100.0
64025;BME280;50266;57.446;26.936;2023-05-01T04:23:09;99448.05;;;0.57;100.0
64025;BME280;50266;57.446;26.936;2023-05-01T04:24:09;99453.62;;;0.54;100.0
64025;BME280;50266;57.446;26.936;2023-05-01T04:25:09;99451.38;;;0.59;100.0
64025;BME280;50266;57.446;26.936;2023-05-01T04:26:09;99449.62;;;0.75;100.0
64025;BME280;50266;57.446;26.936;2023-05-01T04:27:09;99447.8;;;0.69;100.0
64025;BME280;50266;57.446;26.936;2023-05-01T04:28:09;99448.95;;;0.81;100.0
64025;BME280;50266;57.446;26.936;2023-05-01T04:29:09;99442.67;;;0.94;100.0
64025;BME280;50266;57.446;26.936;2023-05-01T04:30:09;99446.11;;;0.88;100.0
64025;BME280;50266;57.446;26.936;2023-05-01T04:31:09;99448.93;;;0.89;100.0
64025;BME280;50266;57.446;26.936;2023-05-01T04:32:09;99453.1;;;0.88;100.0
64025;BME280;50266;57.446;26.936;2023-05-01T04:33:09;99446.88;;;1.0;100.0
64025;BME280;50266;57.446;26.936;2023-05-01T04:34:09;99448.76;;;1.03;100.0
64025;BME280;50266;57.446;26.936;2023-05-01T04:35:09;99444.52;;;1.08;100.0
64025;BME280;50266;57.446;26.936;2023-05-01T04:36:09;99446.23;;;1.14;100.0
64025;BME280;50266;57.446;26.936;2023-05-01T04:37:09;99442.44;;;1.11;100.0
64025;BME280;50266;57.446;26.936;2023-05-01T04:38:09;99451.18;;;1.2;100.0
64025;BME280;50266;57.446;26.936;2023-05-01T04:39:09;99449.66;;;1.17;100.0
64025;BME280;50266;57.446;26.936;2023-05-01T04:40:09;99445.67;;;1.11;100.0
64025;BME280;50266;57.446;26.936;2023-05-01T04:41:09;99450.94;;;1.15;100.0
64025;BME280;50266;57.446;26.936;2023-05-01T04:42:09;99450.58;;;1.09;100.0
64025;BME280;50266;57.446;26.936;2023-05-01T04:43:09;99447.95;;;1.17;100.0
64025;BME280;50266;57.446;26.936;2023-05-01T04:44:09;99444.91;;;1.25;100.0
64025;BME280;50266;57.446;26.936;2023-05-01T04:45:10;99444.71;;;1.37;100.0
64025;BME280;50266;57.446;26.936;2023-05-01T04:46:09;99447.42;;;1.36;100.0
64025;BME280;50266;57.446;26.936;2023-05-01T04:47:09;99447.91;;;1.5;100.0
64025;BME280;50266;57.446;26.936;2023-05-01T04:48:09;99441.99;;;1.57;100.0
64025;BME280;50266;57.446;26.936;2023-05-01T04:49:09;99451.44;;;1.84;100.0
64025;BME280;50266;57.446;26.936;2023-05-01T04:50:09;99451.27;;;1.92;100.0
64025;BME280;50266;57.446;26.936;2023-05-01T04:51:09;99444.78;;;1.8;100.0
64025;BME280;50266;57.446;26.936;2023-05-01T04:52:09;99450.41;;;1.97;100.0
64025;BME280;50266;57.446;26.936;2023-05-01T04:53:09;99449.31;;;1.98;100.0
64025;BME280;50266;57.446;26.936;2023-05-01T04:54:09;99448.97;;;1.88;100.0
64025;BME280;50266;57.446;26.936;2023-05-01T04:55:09;99452.23;;;1.93;100.0
64025;BME280;50266;57.446;26.936;2023-05-01T04:56:09;99453.42;;;2.11;100.0
64025;BME280;50266;57.446;26.936;2023-05-01T04:57:09;99453.41;;;2.21;100.0
64025;BME280;50266;57.446;26.936;2023-05-01T04:58:09;99454.88;;;2.15;100.0
64025;BME280;50266;57.446;26.936;2023-05-01T04:59:09;99453.55;;;2.04;100.0
64025;BME280;50266;57.446;26.936;2023-05-01T05:00:10;99455.94;;;2.19;100.0
64025;BME280;50266;57.446;26.936;2023-05-01T05:01:09;99452.16;;;2.24;100.0
64025;BME280;50266;57.446;26.936;2023-05-01T05:02:09;99454.23;;;2.47;100.0
64025;BME280;50266;57.446;26.936;2023-05-01T05:03:09;99453.95;;;2.53;100.0
64025;BME280;50266;57.446;26.936;2023-05-01T05:04:09;99455.91;;;2.55;100.0
64025;BME280;50266;57.446;26.936;2023-05-01T05:05:09;99454.47;;;2.69;100.0
64025;BME280;50266;57.446;26.936;2023-05-01T05:06:09;99456.19;;;2.61;100.0
64025;BME280;50266;57.446;26.936;2023-05-01T05:07:09;99458.38;;;2.67;100.0
64025;BME280;50266;57.446;26.936;2023-05-01T05:08:10;99458.12;;;2.83;100.0
64025;BME280;50266;57.446;26.936;2023-05-01T05:09:10;99451.73;;;2.93;100.0
64025;BME280;50266;57.446;26.936;2023-05-01T05:10:10;99451.66;;;3.04;100.0
64025;BME280;50266;57.446;26.936;2023-05-01T05:11:10;99459.56;;;3.16;100.0
64025;BME280;50266;57.446;26.936;2023-05-01T05:12:10;99456.88;;;2.96;100.0
64025;BME280;50266;57.446;26.936;2023-05-01T05:13:10;99454.36;;;3.01;100.0
64025;BME280;50266;57.446;26.936;2023-05-01T05:14:10;99456.48;;;3.13;100.0
64025;BME280;50266;57.446;26.936;2023-05-01T05:15:10;99465.17;;;2.99;100.0
64025;BME280;50266;57.446;26.936;2023-05-01T05:16:10;99464.98;;;3.05;100.0
64025;BME280;50266;57.446;26.936;2023-05-01T05:17:10;99466.36;;;3.22;100.0
64025;BME280;50266;57.446;26.936;2023-05-01T05:18:10;99463.17;;;3.25;100.0
64025;BME280;50266;57.446;26.936;2023-05-01T05:19:10;99465.76;;;3.25;100.0
64025;BME280;50266;57.446;26.936;2023-05-01T05:20:10;99469.61;;;3.17;100.0
64025;BME280;50266;57.446;26.936;2023-05-01T05:21:10;99472.48;;;3.28;100.0
64025;BME280;50266;57.446;26.936;2023-05-01T05:22:10;99474.62;;;3.25;100.0
64025;BME280;50266;57.446;26.936;2023-05-01T05:23:10;99471.58;;;3.32;100.0
64025;BME280;50266;57.446;26.936;2023-05-01T05:24:10;99473.47;;;3.45;100.0
64025;BME280;50266;57.446;26.936;2023-05-01T05:25:10;99476.24;;;3.37;100.0
64025;BME280;50266;57.446;26.936;2023-05-01T05:26:10;99477.82;;;3.64;100.0
64025;BME280;50266;57.446;26.936;2023-05-01T05:27:10;99481.34;;;3.86;100.0
64025;BME280;50266;57.446;26.936;2023-05-01T05:28:10;99484.61;;;3.61;100.0
64025;BME280;50266;57.446;26.936;2023-05-01T05:29:10;99482.41;;;3.7;100.0
64025;BME280;50266;57.446;26.936;2023-05-01T05:30:11;99482.65;;;3.83;100.0
64025;BME280;50266;57.446;26.936;2023-05-01T05:31:10;99489.03;;;3.92;100.0
64025;BME280;50266;57.446;26.936;2023-05-01T05:32:10;99490.2;;;4.04;100.0
64025;BME280;50266;57.446;26.936;2023-05-01T05:33:10;99487.91;;;3.96;100.0